sensor_id;sensor_type;location;lat;lon;timestamp;temperature;humidity
4874;DHT22;2451;49.970;9.068;2023-04-01T00:02:07;10.60;99.90
4874;DHT22;2451;49.970;9.068;2023-04-01T00:04:32;10.60;99.90
4874;DHT22;2451;49.970;9.068;2023-04-01T00:06:58;10.60;99.90
4874;DHT22;2451;49.970;9.068;2023-04-01T00:09:25;10.60;99.90
4874;DHT22;2451;49.970;9.068;2023-04-01T00:11:51;10.60;99.90
4874;DHT22;2451;49.970;9.068;2023-04-01T00:14:17;10.60;99.90
4874;DHT22;2451;49.970;9.068;2023-04-01T00:16:42;10.60;99.90
4874;DHT22;2451;49.970;9.068;2023-04-01T00:19:08;10.60;99.90
4874;DHT22;2451;49.970;9.068;2023-04-01T00:21:34;10.60;99.90
4874;DHT22;2451;49.970;9.068;2023-04-01T00:24:00;10.60;99.90
4874;DHT22;2451;49.970;9.068;2023-04-01T00:26:25;10.60;99.90
4874;DHT22;2451;49.970;9.068;2023-04-01T00:28:52;10.60;99.90
4874;DHT22;2451;49.970;9.068;2023-04-01T00:31:18;10.60;99.90
4874;DHT22;2451;49.970;9.068;2023-04-01T00:33:43;10.60;99.90
4874;DHT22;2451;49.970;9.068;2023-04-01T00:36:11;10.60;99.90
4874;DHT22;2451;49.970;9.068;2023-04-01T00:38:38;10.60;99.90
4874;DHT22;2451;49.970;9.068;2023-04-01T00:41:05;10.60;99.90
4874;DHT22;2451;49.970;9.068;2023-04-01T00:43:31;10.60;99.90
4874;DHT22;2451;49.970;9.068;2023-04-01T00:45:57;10.60;99.90
4874;DHT22;2451;49.970;9.068;2023-04-01T00:48:26;10.60;99.90
4874;DHT22;2451;49.970;9.068;2023-04-01T00:51:11;10.60;99.90
4874;DHT22;2451;49.970;9.068;2023-04-01T00:53:43;10.60;99.90
4874;DHT22;2451;49.970;9.068;2023-04-01T00:56:15;10.60;99.90
4874;DHT22;2451;49.970;9.068;2023-04-01T00:58:46;10.60;99.90
4874;DHT22;2451;49.970;9.068;2023-04-01T01:01:13;10.60;99.90
4874;DHT22;2451;49.970;9.068;2023-04-01T01:03:39;10.50;99.90
4874;DHT22;2451;49.970;9.068;2023-04-01T01:06:22;10.50;99.90
4874;DHT22;2451;49.970;9.068;2023-04-01T01:09:14;10.60;99.90
4874;DHT22;2451;49.970;9.068;2023-04-01T01:11:54;10.50;99.90
4874;DHT22;2451;49.970;9.068;2023-04-01T01:15:16;10.60;99.90
4874;DHT22;2451;49.970;9.068;2023-04-01T01:26:15;10.60;99.90
4874;DHT22;2451;49.970;9.068;2023-04-01T01:28:57;10.60;99.90
4874;DHT22;2451;49.970;9.068;2023-04-01T01:34:37;10.50;99.90
4874;DHT22;2451;49.970;9.068;2023-04-01T01:37:16;10.50;99.90
4874;DHT22;2451;49.970;9.068;2023-04-01T01:39:44;10.50;99.90
4874;DHT22;2451;49.970;9.068;2023-04-01T01:42:15;10.50;99.90
4874;DHT22;2451;49.970;9.068;2023-04-01T01:44:43;10.50;99.90
4874;DHT22;2451;49.970;9.068;2023-04-01T01:47:10;10.50;99.90
4874;DHT22;2451;49.970;9.068;2023-04-01T01:49:39;10.50;99.90
4874;DHT22;2451;49.970;9.068;2023-04-01T01:52:05;10.50;99.90
4874;DHT22;2451;49.970;9.068;2023-04-01T01:54:31;10.50;99.90
4874;DHT22;2451;49.970;9.068;2023-04-01T01:57:06;10.60;99.90
4874;DHT22;2451;49.970;9.068;2023-04-01T01:59:34;10.60;99.90
4874;DHT22;2451;49.970;9.068;2023-04-01T02:02:02;10.60;99.90
4874;DHT22;2451;49.970;9.068;2023-04-01T02:04:35;10.60;99.90
4874;DHT22;2451;49.970;9.068;2023-04-01T02:07:10;10.60;99.90
4874;DHT22;2451;49.970;9.068;2023-04-01T02:09:38;10.60;99.90
4874;DHT22;2451;49.970;9.068;2023-04-01T02:12:06;10.60;99.90
4874;DHT22;2451;49.970;9.068;2023-04-01T02:17:33;10.60;99.90
4874;DHT22;2451;49.970;9.068;2023-04-01T02:20:16;10.60;99.90
4874;DHT22;2451;49.970;9.068;2023-04-01T02:22:47;10.60;99.90
4874;DHT22;2451;49.970;9.068;2023-04-01T02:25:15;10.60;99.90
4874;DHT22;2451;49.970;9.068;2023-04-01T02:27:44;10.60;99.90
4874;DHT22;2451;49.970;9.068;2023-04-01T02:30:14;10.60;99.90
4874;DHT22;2451;49.970;9.068;2023-04-01T02:32:41;10.60;99.90
4874;DHT22;2451;49.970;9.068;2023-04-01T02:35:11;10.60;99.90
4874;DHT22;2451;49.970;9.068;2023-04-01T02:37:39;10.50;99.90
4874;DHT22;2451;49.970;9.068;2023-04-01T02:40:11;10.50;99.90
4874;DHT22;2451;49.970;9.068;2023-04-01T02:42:37;10.50;99.90
4874;DHT22;2451;49.970;9.068;2023-04-01T02:45:03;10.50;99.90
4874;DHT22;2451;49.970;9.068;2023-04-01T02:47:29;10.50;99.90
4874;DHT22;2451;49.970;9.068;2023-04-01T02:49:55;10.50;99.90
4874;DHT22;2451;49.970;9.068;2023-04-01T02:52:24;10.50;99.90
4874;DHT22;2451;49.970;9.068;2023-04-01T02:54:50;10.50;99.90
4874;DHT22;2451;49.970;9.068;2023-04-01T02:57:16;10.60;99.90
4874;DHT22;2451;49.970;9.068;2023-04-01T02:59:41;10.60;99.90
4874;DHT22;2451;49.970;9.068;2023-04-01T03:02:07;10.60;99.90
4874;DHT22;2451;49.970;9.068;2023-04-01T03:04:33;10.60;99.90
4874;DHT22;2451;49.970;9.068;2023-04-01T03:06:58;10.50;99.90
4874;DHT22;2451;49.970;9.068;2023-04-01T03:09:24;10.60;99.90
4874;DHT22;2451;49.970;9.068;2023-04-01T03:11:49;10.60;99.90
4874;DHT22;2451;49.970;9.068;2023-04-01T03:14:15;10.60;99.90
4874;DHT22;2451;49.970;9.068;2023-04-01T03:16:40;10.50;99.90
4874;DHT22;2451;49.970;9.068;2023-04-01T03:19:06;10.50;99.90
4874;DHT22;2451;49.970;9.068;2023-04-01T03:21:31;10.50;99.90
4874;DHT22;2451;49.970;9.068;2023-04-01T03:23:57;10.50;99.90
4874;DHT22;2451;49.970;9.068;2023-04-01T03:26:24;10.40;99.90
4874;DHT22;2451;49.970;9.068;2023-04-01T03:28:49;10.50;99.90
4874;DHT22;2451;49.970;9.068;2023-04-01T03:31:15;10.50;99.90
4874;DHT22;2451;49.970;9.068;2023-04-01T03:33:41;10.50;99.90
4874;DHT22;2451;49.970;9.068;2023-04-01T03:36:07;10.40;99.90
4874;DHT22;2451;49.970;9.068;2023-04-01T03:38:34;10.50;99.90
4874;DHT22;2451;49.970;9.068;2023-04-01T03:41:00;10.50;99.90
4874;DHT22;2451;49.970;9.068;2023-04-01T03:43:26;10.50;99.90
4874;DHT22;2451;49.970;9.068;2023-04-01T03:45:52;10.50;99.90
4874;DHT22;2451;49.970;9.068;2023-04-01T03:48:18;10.50;99.90
4874;DHT22;2451;49.970;9.068;2023-04-01T03:50:44;10.50;99.90
4874;DHT22;2451;49.970;9.068;2023-04-01T03:53:10;10.50;99.90
4874;DHT22;2451;49.970;9.068;2023-04-01T03:55:36;10.50;99.90
4874;DHT22;2451;49.970;9.068;2023-04-01T03:58:02;10.50;99.90
4874;DHT22;2451;49.970;9.068;2023-04-01T04:00:29;10.40;99.90
4874;DHT22;2451;49.970;9.068;2023-04-01T04:02:55;10.50;99.90
4874;DHT22;2451;49.970;9.068;2023-04-01T04:05:22;10.50;99.90
4874;DHT22;2451;49.970;9.068;2023-04-01T04:07:48;10.40;99.90
4874;DHT22;2451;49.970;9.068;2023-04-01T04:10:14;10.50;99.90
4874;DHT22;2451;49.970;9.068;2023-04-01T04:12:40;10.50;99.90
4874;DHT22;2451;49.970;9.068;2023-04-01T04:15:06;10.50;99.90
4874;DHT22;2451;49.970;9.068;2023-04-01T04:17:32;10.50;99.90
4874;DHT22;2451;49.970;9.068;2023-04-01T04:19:57;10.40;99.90
4874;DHT22;2451;49.970;9.068;2023-04-01T04:22:23;10.50;99.90
4874;DHT22;2451;49.970;9.068;2023-04-01T04:24:48;10.50;99.90
4874;DHT22;2451;49.970;9.068;2023-04-01T04:27:14;10.50;99.90
4874;DHT22;2451;49.970;9.068;2023-04-01T04:29:40;10.50;99.90
4874;DHT22;2451;49.970;9.068;2023-04-01T04:32:06;10.50;99.90
4874;DHT22;2451;49.970;9.068;2023-04-01T04:34:32;10.50;99.90
4874;DHT22;2451;49.970;9.068;2023-04-01T04:36:58;10.50;99.90
4874;DHT22;2451;49.970;9.068;2023-04-01T04:39:23;10.50;99.90
4874;DHT22;2451;49.970;9.068;2023-04-01T04:41:49;10.40;99.90
4874;DHT22;2451;49.970;9.068;2023-04-01T04:44:14;10.40;99.90
4874;DHT22;2451;49.970;9.068;2023-04-01T04:46:40;10.50;99.90
4874;DHT22;2451;49.970;9.068;2023-04-01T04:49:06;10.50;99.90
4874;DHT22;2451;49.970;9.068;2023-04-01T04:51:32;10.40;99.90
4874;DHT22;2451;49.970;9.068;2023-04-01T04:54:01;10.50;99.90
4874;DHT22;2451;49.970;9.068;2023-04-01T04:56:27;10.50;99.90
4874;DHT22;2451;49.970;9.068;2023-04-01T04:58:53;10.40;99.90
4874;DHT22;2451;49.970;9.068;2023-04-01T05:01:18;10.40;99.90
4874;DHT22;2451;49.970;9.068;2023-04-01T05:03:44;10.50;99.90
4874;DHT22;2451;49.970;9.068;2023-04-01T05:06:13;10.40;99.90
4874;DHT22;2451;49.970;9.068;2023-04-01T05:08:39;10.40;99.90
4874;DHT22;2451;49.970;9.068;2023-04-01T05:11:09;10.40;99.90
4874;DHT22;2451;49.970;9.068;2023-04-01T05:13:36;10.40;99.90
4874;DHT22;2451;49.970;9.068;2023-04-01T05:16:01;10.40;99.90
4874;DHT22;2451;49.970;9.068;2023-04-01T05:18:27;10.40;99.90
4874;DHT22;2451;49.970;9.068;2023-04-01T05:20:54;10.40;99.90
4874;DHT22;2451;49.970;9.068;2023-04-01T05:23:21;10.40;99.90
4874;DHT22;2451;49.970;9.068;2023-04-01T05:25:50;10.40;99.90
4874;DHT22;2451;49.970;9.068;2023-04-01T05:28:18;10.40;99.90
4874;DHT22;2451;49.970;9.068;2023-04-01T05:30:44;10.40;99.90
4874;DHT22;2451;49.970;9.068;2023-04-01T05:33:10;10.40;99.90
4874;DHT22;2451;49.970;9.068;2023-04-01T05:35:36;10.50;99.90
4874;DHT22;2451;49.970;9.068;2023-04-01T05:38:02;10.40;99.90
4874;DHT22;2451;49.970;9.068;2023-04-01T05:40:28;10.40;99.90
4874;DHT22;2451;49.970;9.068;2023-04-01T05:42:54;10.40;99.90
4874;DHT22;2451;49.970;9.068;2023-04-01T05:45:20;10.40;99.90
4874;DHT22;2451;49.970;9.068;2023-04-01T05:47:45;10.40;99.90
4874;DHT22;2451;49.970;9.068;2023-04-01T05:50:11;10.40;99.90
4874;DHT22;2451;49.970;9.068;2023-04-01T05:52:37;10.30;99.90
4874;DHT22;2451;49.970;9.068;2023-04-01T05:55:03;10.20;99.90
4874;DHT22;2451;49.970;9.068;2023-04-01T05:57:29;10.10;99.90
4874;DHT22;2451;49.970;9.068;2023-04-01T05:59:54;10.10;99.90
4874;DHT22;2451;49.970;9.068;2023-04-01T06:02:20;10.00;99.90
4874;DHT22;2451;49.970;9.068;2023-04-01T06:04:46;10.00;99.90
4874;DHT22;2451;49.970;9.068;2023-04-01T06:07:16;9.90;99.90
4874;DHT22;2451;49.970;9.068;2023-04-01T06:09:43;9.80;99.90
4874;DHT22;2451;49.970;9.068;2023-04-01T06:15:20;9.70;99.90
4874;DHT22;2451;49.970;9.068;2023-04-01T06:21:01;9.60;99.90
4874;DHT22;2451;49.970;9.068;2023-04-01T06:23:52;9.60;99.90
4874;DHT22;2451;49.970;9.068;2023-04-01T06:26:43;9.60;99.90
4874;DHT22;2451;49.970;9.068;2023-04-01T06:32:26;9.60;99.90
4874;DHT22;2451;49.970;9.068;2023-04-01T06:40:36;9.60;99.90
4874;DHT22;2451;49.970;9.068;2023-04-01T06:48:36;9.50;99.90
4874;DHT22;2451;49.970;9.068;2023-04-01T06:51:21;9.50;99.90
4874;DHT22;2451;49.970;9.068;2023-04-01T06:56:22;9.50;99.90
4874;DHT22;2451;49.970;9.068;2023-04-01T07:01:22;9.50;99.90
4874;DHT22;2451;49.970;9.068;2023-04-01T07:04:23;9.50;99.90
4874;DHT22;2451;49.970;9.068;2023-04-01T07:06:59;9.50;99.90
4874;DHT22;2451;49.970;9.068;2023-04-01T07:09:35;9.50;99.90
4874;DHT22;2451;49.970;9.068;2023-04-01T07:12:10;9.50;99.90
4874;DHT22;2451;49.970;9.068;2023-04-01T07:14:39;9.50;99.90
4874;DHT22;2451;49.970;9.068;2023-04-01T07:17:28;9.50;99.90
4874;DHT22;2451;49.970;9.068;2023-04-01T07:20:11;9.50;99.90
4874;DHT22;2451;49.970;9.068;2023-04-01T07:22:45;9.50;99.90
4874;DHT22;2451;49.970;9.068;2023-04-01T07:25:18;9.60;99.90
4874;DHT22;2451;49.970;9.068;2023-04-01T07:27:44;9.60;99.90
4874;DHT22;2451;49.970;9.068;2023-04-01T07:30:18;9.60;99.90
4874;DHT22;2451;49.970;9.068;2023-04-01T07:32:55;9.60;99.90
4874;DHT22;2451;49.970;9.068;2023-04-01T07:38:14;9.70;99.90
4874;DHT22;2451;49.970;9.068;2023-04-01T07:43:44;9.60;99.90
4874;DHT22;2451;49.970;9.068;2023-04-01T07:49:07;9.70;99.90
4874;DHT22;2451;49.970;9.068;2023-04-01T07:51:56;9.70;99.90
4874;DHT22;2451;49.970;9.068;2023-04-01T07:54:42;9.80;99.90
4874;DHT22;2451;49.970;9.068;2023-04-01T07:57:27;9.70;99.90
4874;DHT22;2451;49.970;9.068;2023-04-01T08:00:18;9.70;99.90
4874;DHT22;2451;49.970;9.068;2023-04-01T08:05:29;9.70;99.90
4874;DHT22;2451;49.970;9.068;2023-04-01T08:13:15;9.90;99.90
4874;DHT22;2451;49.970;9.068;2023-04-01T08:18:45;10.00;99.90
4874;DHT22;2451;49.970;9.068;2023-04-01T08:21:20;10.10;99.90
4874;DHT22;2451;49.970;9.068;2023-04-01T08:23:49;10.10;99.90
4874;DHT22;2451;49.970;9.068;2023-04-01T08:26:37;10.10;99.90
4874;DHT22;2451;49.970;9.068;2023-04-01T08:29:16;10.10;99.90
4874;DHT22;2451;49.970;9.068;2023-04-01T08:31:58;10.10;99.90
4874;DHT22;2451;49.970;9.068;2023-04-01T08:34:35;10.20;99.90
4874;DHT22;2451;49.970;9.068;2023-04-01T08:37:11;10.20;99.90
4874;DHT22;2451;49.970;9.068;2023-04-01T08:39:42;10.20;99.90
4874;DHT22;2451;49.970;9.068;2023-04-01T08:48:07;10.20;99.90
4874;DHT22;2451;49.970;9.068;2023-04-01T08:56:26;10.20;99.90
4874;DHT22;2451;49.970;9.068;2023-04-01T09:08:19;10.20;99.90
4874;DHT22;2451;49.970;9.068;2023-04-01T09:24:15;10.20;99.90
4874;DHT22;2451;49.970;9.068;2023-04-01T09:30:06;10.30;99.90
4874;DHT22;2451;49.970;9.068;2023-04-01T09:35:49;10.30;99.90
4874;DHT22;2451;49.970;9.068;2023-04-01T09:38:38;10.30;99.90
4874;DHT22;2451;49.970;9.068;2023-04-01T09:41:11;10.40;99.90
4874;DHT22;2451;49.970;9.068;2023-04-01T09:43:50;10.50;99.90
4874;DHT22;2451;49.970;9.068;2023-04-01T09:49:39;10.60;99.90
4874;DHT22;2451;49.970;9.068;2023-04-01T09:52:24;10.60;99.90
4874;DHT22;2451;49.970;9.068;2023-04-01T10:00:38;10.70;99.90
4874;DHT22;2451;49.970;9.068;2023-04-01T10:03:25;10.70;99.90
4874;DHT22;2451;49.970;9.068;2023-04-01T10:06:19;10.70;99.90
4874;DHT22;2451;49.970;9.068;2023-04-01T10:15:33;10.70;99.90
4874;DHT22;2451;49.970;9.068;2023-04-01T10:20:58;10.60;99.90
4874;DHT22;2451;49.970;9.068;2023-04-01T10:34:42;10.50;99.90
4874;DHT22;2451;49.970;9.068;2023-04-01T10:37:36;10.50;99.90
4874;DHT22;2451;49.970;9.068;2023-04-01T10:40:13;10.60;99.90
4874;DHT22;2451;49.970;9.068;2023-04-01T10:43:13;10.60;99.90
4874;DHT22;2451;49.970;9.068;2023-04-01T10:51:16;10.60;99.90
4874;DHT22;2451;49.970;9.068;2023-04-01T10:53:56;10.70;99.90
4874;DHT22;2451;49.970;9.068;2023-04-01T11:14:24;11.10;99.90
4874;DHT22;2451;49.970;9.068;2023-04-01T11:26:06;11.00;99.90
4874;DHT22;2451;49.970;9.068;2023-04-01T11:50:39;11.00;99.90
4874;DHT22;2451;49.970;9.068;2023-04-01T12:01:27;11.20;99.90
4874;DHT22;2451;49.970;9.068;2023-04-01T12:04:23;11.30;99.90
4874;DHT22;2451;49.970;9.068;2023-04-01T12:08:00;11.40;99.90
4874;DHT22;2451;49.970;9.068;2023-04-01T12:15:52;11.70;99.90
4874;DHT22;2451;49.970;9.068;2023-04-01T12:18:33;11.70;99.90
4874;DHT22;2451;49.970;9.068;2023-04-01T12:39:01;11.70;99.90
4874;DHT22;2451;49.970;9.068;2023-04-01T12:47:42;11.70;99.90
4874;DHT22;2451;49.970;9.068;2023-04-01T12:56:13;11.70;99.90
4874;DHT22;2451;49.970;9.068;2023-04-01T12:59:10;11.70;99.90
4874;DHT22;2451;49.970;9.068;2023-04-01T13:10:30;11.50;99.90
4874;DHT22;2451;49.970;9.068;2023-04-01T13:18:50;11.50;99.90
4874;DHT22;2451;49.970;9.068;2023-04-01T13:21:43;11.50;99.90
4874;DHT22;2451;49.970;9.068;2023-04-01T13:27:35;11.60;99.90
4874;DHT22;2451;49.970;9.068;2023-04-01T13:30:25;11.50;99.90
4874;DHT22;2451;49.970;9.068;2023-04-01T13:33:13;11.50;99.90
4874;DHT22;2451;49.970;9.068;2023-04-01T13:44:22;11.40;99.90
4874;DHT22;2451;49.970;9.068;2023-04-01T13:49:53;11.40;99.90
4874;DHT22;2451;49.970;9.068;2023-04-01T13:57:52;11.30;99.90
4874;DHT22;2451;49.970;9.068;2023-04-01T14:06:13;11.20;99.90
4874;DHT22;2451;49.970;9.068;2023-04-01T14:22:34;11.30;99.90
4874;DHT22;2451;49.970;9.068;2023-04-01T14:31:04;11.30;99.90
4874;DHT22;2451;49.970;9.068;2023-04-01T14:33:51;11.30;99.90
4874;DHT22;2451;49.970;9.068;2023-04-01T14:36:41;11.30;99.90
4874;DHT22;2451;49.970;9.068;2023-04-01T14:39:35;11.30;99.90
4874;DHT22;2451;49.970;9.068;2023-04-01T14:47:54;11.20;99.90
4874;DHT22;2451;49.970;9.068;2023-04-01T14:50:23;11.20;99.90
4874;DHT22;2451;49.970;9.068;2023-04-01T14:55:29;11.20;99.90
4874;DHT22;2451;49.970;9.068;2023-04-01T14:58:14;11.30;99.90
4874;DHT22;2451;49.970;9.068;2023-04-01T15:00:48;11.30;99.90
4874;DHT22;2451;49.970;9.068;2023-04-01T15:03:56;11.30;99.90
4874;DHT22;2451;49.970;9.068;2023-04-01T15:06:49;11.40;99.90
4874;DHT22;2451;49.970;9.068;2023-04-01T15:26:33;11.20;99.90
4874;DHT22;2451;49.970;9.068;2023-04-01T15:35:39;11.00;99.90
4874;DHT22;2451;49.970;9.068;2023-04-01T15:41:16;10.90;99.90
4874;DHT22;2451;49.970;9.068;2023-04-01T15:43:45;11.00;99.90
4874;DHT22;2451;49.970;9.068;2023-04-01T15:46:47;11.10;99.90
4874;DHT22;2451;49.970;9.068;2023-04-01T15:49:39;11.10;99.90
4874;DHT22;2451;49.970;9.068;2023-04-01T15:52:23;11.10;99.90
4874;DHT22;2451;49.970;9.068;2023-04-01T16:05:42;11.00;99.90
4874;DHT22;2451;49.970;9.068;2023-04-01T16:11:23;11.00;99.90
4874;DHT22;2451;49.970;9.068;2023-04-01T16:13:55;10.90;99.90
4874;DHT22;2451;49.970;9.068;2023-04-01T16:16:41;10.90;99.90
4874;DHT22;2451;49.970;9.068;2023-04-01T16:19:33;10.80;99.90
4874;DHT22;2451;49.970;9.068;2023-04-01T16:24:54;10.90;99.90
4874;DHT22;2451;49.970;9.068;2023-04-01T16:27:56;10.80;99.90
4874;DHT22;2451;49.970;9.068;2023-04-01T16:32:57;10.90;99.90
4874;DHT22;2451;49.970;9.068;2023-04-01T16:35:58;10.90;99.90
4874;DHT22;2451;49.970;9.068;2023-04-01T16:38:35;10.90;99.90
4874;DHT22;2451;49.970;9.068;2023-04-01T16:43:48;10.80;99.90
4874;DHT22;2451;49.970;9.068;2023-04-01T16:46:36;10.80;99.90
4874;DHT22;2451;49.970;9.068;2023-04-01T16:54:58;10.70;99.90
4874;DHT22;2451;49.970;9.068;2023-04-01T17:00:00;10.80;99.90
4874;DHT22;2451;49.970;9.068;2023-04-01T17:02:47;10.70;99.90
4874;DHT22;2451;49.970;9.068;2023-04-01T17:05:15;10.70;99.90
4874;DHT22;2451;49.970;9.068;2023-04-01T17:10:57;10.60;99.90
4874;DHT22;2451;49.970;9.068;2023-04-01T17:13:35;10.60;99.90
4874;DHT22;2451;49.970;9.068;2023-04-01T17:16:29;10.60;99.90
4874;DHT22;2451;49.970;9.068;2023-04-01T17:19:14;10.60;99.90
4874;DHT22;2451;49.970;9.068;2023-04-01T17:21:57;10.50;99.90
4874;DHT22;2451;49.970;9.068;2023-04-01T17:24:51;10.50;99.90
4874;DHT22;2451;49.970;9.068;2023-04-01T17:32:53;10.50;99.90
4874;DHT22;2451;49.970;9.068;2023-04-01T17:35:32;10.50;99.90
4874;DHT22;2451;49.970;9.068;2023-04-01T17:51:59;10.40;99.90
4874;DHT22;2451;49.970;9.068;2023-04-01T17:57:46;10.40;99.90
4874;DHT22;2451;49.970;9.068;2023-04-01T18:09:19;10.30;99.90
4874;DHT22;2451;49.970;9.068;2023-04-01T18:12:36;10.30;99.90
4874;DHT22;2451;49.970;9.068;2023-04-01T18:24:30;10.40;99.90
4874;DHT22;2451;49.970;9.068;2023-04-01T18:29:55;10.40;99.90
4874;DHT22;2451;49.970;9.068;2023-04-01T18:32:35;10.40;99.90
4874;DHT22;2451;49.970;9.068;2023-04-01T18:35:22;10.30;99.90
4874;DHT22;2451;49.970;9.068;2023-04-01T18:40:32;10.30;99.90
4874;DHT22;2451;49.970;9.068;2023-04-01T18:46:00;10.30;99.90
4874;DHT22;2451;49.970;9.068;2023-04-01T18:48:54;10.30;99.90
4874;DHT22;2451;49.970;9.068;2023-04-01T18:51:52;10.30;99.90
4874;DHT22;2451;49.970;9.068;2023-04-01T18:54:31;10.30;99.90
4874;DHT22;2451;49.970;9.068;2023-04-01T18:57:10;10.20;99.90
4874;DHT22;2451;49.970;9.068;2023-04-01T19:02:36;10.20;99.90
4874;DHT22;2451;49.970;9.068;2023-04-01T19:07:55;10.30;99.90
4874;DHT22;2451;49.970;9.068;2023-04-01T19:11:09;10.20;99.90
4874;DHT22;2451;49.970;9.068;2023-04-01T19:16:45;10.30;99.90
4874;DHT22;2451;49.970;9.068;2023-04-01T19:19:34;10.20;99.90
4874;DHT22;2451;49.970;9.068;2023-04-01T19:25:21;10.20;99.90
4874;DHT22;2451;49.970;9.068;2023-04-01T19:27:50;10.20;99.90
4874;DHT22;2451;49.970;9.068;2023-04-01T19:36:24;10.10;99.90
4874;DHT22;2451;49.970;9.068;2023-04-01T19:39:06;10.00;99.90
4874;DHT22;2451;49.970;9.068;2023-04-01T19:41:58;10.00;99.90
4874;DHT22;2451;49.970;9.068;2023-04-01T19:47:20;10.00;99.90
4874;DHT22;2451;49.970;9.068;2023-04-01T19:52:31;10.00;99.90
4874;DHT22;2451;49.970;9.068;2023-04-01T20:00:41;10.00;99.90
4874;DHT22;2451;49.970;9.068;2023-04-01T20:06:16;10.00;99.90
4874;DHT22;2451;49.970;9.068;2023-04-01T20:11:36;10.00;99.90
4874;DHT22;2451;49.970;9.068;2023-04-01T20:14:47;9.90;99.90
4874;DHT22;2451;49.970;9.068;2023-04-01T20:19:55;9.90;99.90
4874;DHT22;2451;49.970;9.068;2023-04-01T20:24:59;9.80;99.90
4874;DHT22;2451;49.970;9.068;2023-04-01T20:27:32;9.80;99.90
4874;DHT22;2451;49.970;9.068;2023-04-01T20:30:26;9.80;99.90
4874;DHT22;2451;49.970;9.068;2023-04-01T20:44:08;9.80;99.90
4874;DHT22;2451;49.970;9.068;2023-04-01T20:46:48;9.90;99.90
4874;DHT22;2451;49.970;9.068;2023-04-01T20:57:44;9.90;99.90
4874;DHT22;2451;49.970;9.068;2023-04-01T21:00:37;9.80;99.90
4874;DHT22;2451;49.970;9.068;2023-04-01T21:05:45;9.80;99.90
4874;DHT22;2451;49.970;9.068;2023-04-01T21:11:35;9.80;99.90
4874;DHT22;2451;49.970;9.068;2023-04-01T21:14:32;9.80;99.90
4874;DHT22;2451;49.970;9.068;2023-04-01T21:17:08;9.90;99.90
4874;DHT22;2451;49.970;9.068;2023-04-01T21:22:54;9.90;99.90
4874;DHT22;2451;49.970;9.068;2023-04-01T21:25:34;9.90;99.90
4874;DHT22;2451;49.970;9.068;2023-04-01T21:37:26;9.90;99.90
4874;DHT22;2451;49.970;9.068;2023-04-01T21:52:00;9.80;99.90
4874;DHT22;2451;49.970;9.068;2023-04-01T22:04:48;9.80;99.90
4874;DHT22;2451;49.970;9.068;2023-04-01T22:10:22;9.70;99.90
4874;DHT22;2451;49.970;9.068;2023-04-01T22:13:20;9.70;99.90
4874;DHT22;2451;49.970;9.068;2023-04-01T22:18:52;9.80;99.90
4874;DHT22;2451;49.970;9.068;2023-04-01T22:21:28;9.80;99.90
4874;DHT22;2451;49.970;9.068;2023-04-01T22:24:26;9.80;99.90
4874;DHT22;2451;49.970;9.068;2023-04-01T22:30:08;9.80;99.90
4874;DHT22;2451;49.970;9.068;2023-04-01T22:49:59;9.80;99.90
4874;DHT22;2451;49.970;9.068;2023-04-01T22:52:33;9.80;99.90
4874;DHT22;2451;49.970;9.068;2023-04-01T22:55:10;9.80;99.90
4874;DHT22;2451;49.970;9.068;2023-04-01T23:00:22;9.80;99.90
4874;DHT22;2451;49.970;9.068;2023-04-01T23:03:24;9.80;99.90
4874;DHT22;2451;49.970;9.068;2023-04-01T23:05:53;9.80;99.90
4874;DHT22;2451;49.970;9.068;2023-04-01T23:11:21;9.80;99.90
4874;DHT22;2451;49.970;9.068;2023-04-01T23:14:37;9.80;99.90
4874;DHT22;2451;49.970;9.068;2023-04-01T23:22:34;9.80;99.90
4874;DHT22;2451;49.970;9.068;2023-04-01T23:25:50;9.80;99.90
4874;DHT22;2451;49.970;9.068;2023-04-01T23:31:03;9.90;99.90
4874;DHT22;2451;49.970;9.068;2023-04-01T23:33:30;9.80;99.90
4874;DHT22;2451;49.970;9.068;2023-04-01T23:36:11;9.80;99.90
4874;DHT22;2451;49.970;9.068;2023-04-01T23:38:39;9.80;99.90
4874;DHT22;2451;49.970;9.068;2023-04-01T23:41:09;9.80;99.90
4874;DHT22;2451;49.970;9.068;2023-04-01T23:43:43;9.80;99.90
4874;DHT22;2451;49.970;9.068;2023-04-01T23:46:09;9.80;99.90
4874;DHT22;2451;49.970;9.068;2023-04-01T23:48:40;9.90;99.90
4874;DHT22;2451;49.970;9.068;2023-04-01T23:51:21;9.90;99.90
4874;DHT22;2451;49.970;9.068;2023-04-01T23:54:01;9.90;99.90
4874;DHT22;2451;49.970;9.068;2023-04-01T23:56:55;9.80;99.90
4874;DHT22;2451;49.970;9.068;2023-04-01T23:59:32;9.90;99.90
